Time;durP1;ratioP1;P1;durP2;ratioP2;P2;SDS_P1;SDS_P2;PMS_P1;PMS_P2;Temp;Humidity;BMP_temperature;BMP_pressure;BME280_temperature;BME280_humidity;BME280_pressure;Samples;Min_cycle;Max_cycle;Signal;HPM_P1;HPM_P2
2023/07/31 00:00:32;;;;;;;16.92;4.03;;;13.50;98.60;;;;;;4928369;29;20031;-87
2023/07/31 00:02:57;;;;;;;11.93;3.22;;;13.60;98.30;;;;;;4944722;29;20043;-90
2023/07/31 00:05:23;;;;;;;9.68;2.72;;;13.60;98.20;;;;;;4924685;29;20039;-87
2023/07/31 00:07:48;;;;;;;15.93;3.05;;;13.60;98.20;;;;;;4945925;29;20042;-88
2023/07/31 00:10:14;;;;;;;10.65;3.45;;;13.60;98.10;;;;;;4930160;29;20060;-90
2023/07/31 00:12:42;;;;;;;9.48;3.15;;;13.60;97.90;;;;;;4944595;29;20478;-88
2023/07/31 00:15:08;;;;;;;12.07;3.45;;;13.70;97.90;;;;;;4930183;29;20043;-89
2023/07/31 00:17:34;;;;;;;13.75;3.70;;;13.60;97.80;;;;;;4949064;29;20024;-87
2023/07/31 00:19:59;;;;;;;12.82;3.50;;;13.60;98.10;;;;;;4929622;29;20107;-89
2023/07/31 00:22:24;;;;;;;9.20;3.80;;;13.70;98.00;;;;;;4935281;29;20046;-89
2023/07/31 00:24:50;;;;;;;14.82;4.00;;;13.70;98.10;;;;;;4959893;29;20019;-86
2023/07/31 00:27:15;;;;;;;15.95;3.97;;;13.80;98.20;;;;;;4944348;29;20038;-88
2023/07/31 00:29:41;;;;;;;11.07;3.53;;;13.80;98.10;;;;;;4947725;29;20478;-89
2023/07/31 00:32:07;;;;;;;10.57;3.53;;;13.80;98.00;;;;;;4951266;29;20031;-89
2023/07/31 00:34:32;;;;;;;10.93;3.13;;;13.80;97.90;;;;;;4965284;29;20035;-90
2023/07/31 00:36:58;;;;;;;13.90;3.45;;;13.80;98.20;;;;;;4968555;29;20035;-91
2023/07/31 00:39:23;;;;;;;11.13;3.63;;;13.80;98.20;;;;;;4954239;29;21376;-90
2023/07/31 00:41:49;;;;;;;9.18;3.35;;;13.80;98.40;;;;;;4954373;29;20035;-90
2023/07/31 00:44:14;;;;;;;10.07;3.75;;;13.80;98.40;;;;;;4966330;28;20063;-90
2023/07/31 00:46:40;;;;;;;7.13;3.25;;;13.70;98.40;;;;;;4946983;29;20046;-89
2023/07/31 00:49:06;;;;;;;5.93;2.92;;;13.70;98.50;;;;;;4949423;29;20047;-89
2023/07/31 00:51:31;;;;;;;12.02;3.50;;;13.70;98.50;;;;;;4964653;28;20015;-88
2023/07/31 00:53:57;;;;;;;12.55;3.80;;;13.70;98.60;;;;;;4948771;29;20037;-87
2023/07/31 00:56:25;;;;;;;13.25;4.20;;;13.70;98.60;;;;;;4965305;29;20403;-86
2023/07/31 00:58:50;;;;;;;14.90;3.58;;;13.70;98.60;;;;;;4947544;29;20027;-89
2023/07/31 01:01:16;;;;;;;12.93;3.47;;;13.60;98.70;;;;;;4952981;28;20117;-86
2023/07/31 01:03:42;;;;;;;15.70;3.85;;;13.70;98.70;;;;;;4950246;29;20027;-88
2023/07/31 01:06:17;;;;;;;11.45;3.63;;;13.70;98.60;;;;;;4966758;28;20066;-88
2023/07/31 01:08:50;;;;;;;12.50;3.78;;;13.70;98.80;;;;;;4953072;29;20027;-88
2023/07/31 01:11:27;;;;;;;8.48;3.50;;;13.70;98.70;;;;;;4947107;29;20037;-86
2023/07/31 01:13:54;;;;;;;11.20;3.45;;;13.70;98.80;;;;;;4949054;29;20582;-87
2023/07/31 01:16:20;;;;;;;13.57;3.97;;;13.70;98.80;;;;;;4951344;29;20426;-88
2023/07/31 01:18:45;;;;;;;14.43;3.92;;;13.70;98.80;;;;;;4950010;29;20104;-86
2023/07/31 01:21:48;;;;;;;10.38;3.95;;;13.80;98.80;;;;;;4952137;29;20116;-87
2023/07/31 01:24:28;;;;;;;14.80;3.92;;;13.80;98.90;;;;;;4948152;29;20058;-88
2023/07/31 01:26:57;;;;;;;12.43;4.20;;;13.80;99.00;;;;;;4955251;28;20115;-89
2023/07/31 01:29:48;;;;;;;13.93;4.18;;;13.90;99.10;;;;;;4963671;28;20035;-86
2023/07/31 01:32:16;;;;;;;13.50;3.95;;;13.80;99.00;;;;;;4968760;29;20034;-88
2023/07/31 01:34:43;;;;;;;11.77;4.25;;;13.80;99.00;;;;;;4945135;29;20137;-88
2023/07/31 01:37:08;;;;;;;13.45;3.65;;;13.80;99.10;;;;;;4941635;29;20035;-86
2023/07/31 01:39:34;;;;;;;14.73;4.82;;;13.90;99.20;;;;;;4949826;29;20333;-87
2023/07/31 01:41:59;;;;;;;10.52;4.20;;;13.90;99.10;;;;;;4947458;29;20395;-86
2023/07/31 01:44:25;;;;;;;11.60;4.38;;;13.90;99.10;;;;;;4950189;29;20055;-89
2023/07/31 01:46:50;;;;;;;15.23;4.50;;;13.90;99.20;;;;;;4950644;29;20041;-86
2023/07/31 01:49:16;;;;;;;10.48;4.40;;;13.90;99.20;;;;;;4948163;29;20190;-87
2023/07/31 01:51:41;;;;;;;12.23;4.68;;;13.90;99.30;;;;;;4945662;29;20032;-87
2023/07/31 01:54:07;;;;;;;17.25;4.50;;;13.90;99.30;;;;;;4949787;29;20086;-86
2023/07/31 01:56:32;;;;;;;11.90;4.13;;;14.00;99.40;;;;;;4949888;29;20019;-88
2023/07/31 01:58:58;;;;;;;11.75;4.07;;;14.00;99.40;;;;;;4950374;29;20028;-86
2023/07/31 02:01:23;;;;;;;11.38;4.00;;;14.00;99.40;;;;;;4966435;28;20039;-85
2023/07/31 02:03:49;;;;;;;14.45;4.90;;;14.00;99.40;;;;;;4944556;29;20035;-87
2023/07/31 02:06:14;;;;;;;11.88;5.05;;;14.00;99.40;;;;;;4949698;29;20058;-87
2023/07/31 02:08:40;;;;;;;9.93;4.55;;;14.00;99.40;;;;;;4951521;29;20035;-86
2023/07/31 02:11:05;;;;;;;14.48;4.10;;;14.00;99.40;;;;;;4957716;28;20054;-89
2023/07/31 02:13:31;;;;;;;12.48;4.18;;;14.10;99.50;;;;;;4966384;28;20549;-86
2023/07/31 02:15:57;;;;;;;14.32;4.60;;;14.00;99.50;;;;;;4951063;29;20047;-86
2023/07/31 02:18:22;;;;;;;12.18;4.25;;;14.00;99.60;;;;;;4950695;29;20027;-88
2023/07/31 02:20:51;;;;;;;16.52;5.20;;;14.00;99.60;;;;;;4966936;29;20173;-88
2023/07/31 02:23:18;;;;;;;14.95;4.32;;;14.00;99.60;;;;;;4953090;29;20062;-85
2023/07/31 02:25:44;;;;;;;11.75;4.65;;;14.00;99.60;;;;;;4952324;29;20228;-86
2023/07/31 02:28:09;;;;;;;9.05;4.50;;;14.00;99.70;;;;;;4950721;29;20031;-86
2023/07/31 02:30:35;;;;;;;12.90;4.40;;;14.00;99.70;;;;;;4952813;29;20463;-85
2023/07/31 02:54:16;;;;;;;11.18;4.35;;;14.20;99.90;;;;;;5656638;23;20051;-91
2023/07/31 02:56:50;;;;;;;11.55;5.15;;;14.20;99.90;;;;;;5439695;23;20028;-90
2023/07/31 03:43:13;;;;;;;11.93;7.07;;;14.30;99.80;;;;;;951627;23;20425;-89
2023/07/31 03:45:39;;;;;;;13.90;7.32;;;14.30;99.70;;;;;;4969437;28;20054;-90
2023/07/31 03:48:05;;;;;;;12.98;7.82;;;14.30;99.70;;;;;;4969594;28;20027;-90
2023/07/31 03:50:31;;;;;;;15.00;7.95;;;14.30;99.70;;;;;;4950289;28;20085;-90
2023/07/31 03:52:56;;;;;;;11.77;7.55;;;14.30;99.80;;;;;;4969738;28;20015;-91
2023/07/31 03:55:22;;;;;;;14.10;8.32;;;14.30;99.80;;;;;;4974183;28;20103;-88
2023/07/31 03:57:48;;;;;;;15.30;8.60;;;14.30;99.80;;;;;;4969117;28;20384;-91
2023/07/31 04:00:13;;;;;;;13.45;8.80;;;14.30;99.90;;;;;;4966790;28;20019;-90
2023/07/31 04:02:40;;;;;;;15.07;8.48;;;14.20;99.90;;;;;;5046364;23;20153;-87
2023/07/31 04:05:06;;;;;;;14.85;8.20;;;14.30;99.90;;;;;;4970440;28;20042;-88
2023/07/31 05:00:23;;;;;;;13.93;8.43;;;14.30;99.90;;;;;;675765;23;21609;-86
2023/07/31 05:45:04;;;;;;;13.35;9.18;;;14.80;99.90;;;;;;5907412;23;20030;-85
2023/07/31 05:50:24;;;;;;;12.40;8.60;;;14.80;99.90;;;;;;5626370;23;20139;-89
2023/07/31 07:39:51;;;;;;;4.40;1.70;;;15.70;99.90;;;;;;980877;23;20339;-90
2023/07/31 08:00:23;;;;;;;1.50;0.95;;;16.00;99.90;;;;;;4964064;28;20365;-90
2023/07/31 08:02:49;;;;;;;1.30;1.00;;;16.00;99.90;;;;;;5172833;23;20102;-91
2023/07/31 08:05:14;;;;;;;0.90;0.80;;;16.00;99.70;;;;;;4936740;29;20099;-90
2023/07/31 08:07:40;;;;;;;1.67;0.63;;;15.90;99.80;;;;;;4937210;29;20048;-91
2023/07/31 08:10:06;;;;;;;1.98;0.57;;;16.00;99.80;;;;;;4937118;29;20055;-90
2023/07/31 08:12:31;;;;;;;0.60;0.50;;;16.10;99.90;;;;;;4937555;29;20031;-89
2023/07/31 08:14:57;;;;;;;0.52;0.52;;;16.00;99.70;;;;;;4935706;29;20027;-91
2023/07/31 08:17:22;;;;;;;0.50;0.20;;;15.90;99.70;;;;;;4939068;29;20050;-90
2023/07/31 08:22:23;;;;;;;0.70;0.40;;;16.00;99.70;;;;;;4966324;23;20189;-93
2023/07/31 08:24:49;;;;;;;0.40;0.35;;;16.00;99.90;;;;;;4948117;29;20087;-92
2023/07/31 08:27:14;;;;;;;0.75;0.60;;;16.10;99.90;;;;;;4952887;28;20023;-90
2023/07/31 08:29:40;;;;;;;0.60;0.40;;;16.10;99.80;;;;;;4949145;28;20027;-90
2023/07/31 10:32:08;;;;;;;16.00;7.00;;;16.60;98.90;;;;;;5045486;23;20043;-90
2023/07/31 10:54:30;;;;;;;13.10;7.32;;;16.70;99.80;;;;;;5985260;23;19968;-89
2023/07/31 10:59:53;;;;;;;17.00;6.70;;;16.90;99.70;;;;;;4242342;23;20248;-94
2023/07/31 12:30:45;;;;;;;3.78;2.30;;;17.10;99.90;;;;;;1561954;23;20337;-89
2023/07/31 12:40:56;;;;;;;3.47;2.30;;;17.20;99.90;;;;;;5209843;23;19910;-89
2023/07/31 12:45:57;;;;;;;4.65;1.90;;;17.30;99.90;;;;;;5680630;23;20054;-90
2023/07/31 12:51:10;;;;;;;2.38;1.30;;;17.40;99.90;;;;;;5278400;23;20059;-89
2023/07/31 13:04:19;;;;;;;3.17;1.65;;;17.30;99.90;;;;;;4960960;28;20433;-90
2023/07/31 13:06:45;;;;;;;3.05;1.60;;;17.10;99.90;;;;;;4955536;28;20119;-88
2023/07/31 13:09:11;;;;;;;1.80;1.33;;;17.00;99.90;;;;;;4947099;29;20163;-90
2023/07/31 13:11:36;;;;;;;2.58;1.20;;;17.00;99.90;;;;;;4964127;28;20037;-90
2023/07/31 13:14:02;;;;;;;2.00;1.15;;;17.00;99.90;;;;;;4944084;29;20356;-90
2023/07/31 13:16:28;;;;;;;2.38;1.25;;;17.10;99.90;;;;;;4937755;29;20050;-89
2023/07/31 13:18:53;;;;;;;2.28;1.33;;;17.10;99.90;;;;;;4960114;29;20023;-89
2023/07/31 13:21:22;;;;;;;1.95;1.60;;;17.20;99.90;;;;;;4950324;29;20027;-90
2023/07/31 13:23:47;;;;;;;3.33;1.77;;;17.30;99.90;;;;;;5074320;23;20066;-90
2023/07/31 13:33:59;;;;;;;1.52;1.30;;;17.50;99.90;;;;;;5392023;23;20066;-91
2023/07/31 13:36:24;;;;;;;2.20;1.58;;;17.40;99.90;;;;;;4947969;28;20090;-92
2023/07/31 13:38:50;;;;;;;1.77;1.23;;;17.40;99.90;;;;;;4942213;29;20456;-90
2023/07/31 13:41:15;;;;;;;1.70;1.48;;;17.30;99.90;;;;;;4947471;29;20027;-90
2023/07/31 13:43:41;;;;;;;3.28;1.70;;;17.40;99.90;;;;;;4937024;29;20146;-88
2023/07/31 13:46:07;;;;;;;1.95;1.52;;;17.50;99.90;;;;;;4938356;29;20071;-89
2023/07/31 13:48:36;;;;;;;2.42;1.65;;;17.40;99.90;;;;;;4947168;28;20055;-89
2023/07/31 13:51:02;;;;;;;2.75;1.92;;;17.50;99.90;;;;;;4951504;29;20063;-89
2023/07/31 13:53:33;;;;;;;4.32;1.90;;;17.40;99.90;;;;;;4987276;23;20043;-89
2023/07/31 13:55:59;;;;;;;3.13;2.30;;;17.40;99.90;;;;;;4960151;28;20094;-89
2023/07/31 13:58:25;;;;;;;5.05;2.63;;;17.50;99.90;;;;;;4942548;28;20031;-87
2023/07/31 14:00:50;;;;;;;4.60;2.47;;;17.50;99.90;;;;;;4941258;29;20657;-89
2023/07/31 14:03:16;;;;;;;5.88;2.85;;;17.40;99.90;;;;;;4938521;29;20501;-90
2023/07/31 14:05:42;;;;;;;5.32;2.90;;;17.30;99.90;;;;;;4954851;28;20071;-91
2023/07/31 14:08:07;;;;;;;5.47;3.30;;;17.30;99.90;;;;;;4936181;29;20036;-88
2023/07/31 14:10:33;;;;;;;4.60;2.95;;;17.30;99.90;;;;;;4935893;29;20031;-88
2023/07/31 14:12:59;;;;;;;4.55;3.20;;;17.30;99.90;;;;;;4932840;29;20079;-90
2023/07/31 14:15:24;;;;;;;5.28;3.10;;;17.40;99.90;;;;;;4939817;29;20101;-90
2023/07/31 14:17:50;;;;;;;5.85;3.42;;;17.40;99.90;;;;;;4945951;29;20030;-89
2023/07/31 14:20:15;;;;;;;6.72;3.38;;;17.50;99.90;;;;;;4944794;29;20027;-90
2023/07/31 14:22:41;;;;;;;6.07;3.30;;;17.50;99.90;;;;;;4941456;29;20118;-89
2023/07/31 14:30:44;;;;;;;7.20;3.58;;;17.40;99.90;;;;;;5117791;23;20501;-90
2023/07/31 14:33:10;;;;;;;5.95;3.80;;;17.40;99.90;;;;;;5174530;23;20062;-90
2023/07/31 14:35:36;;;;;;;6.43;4.32;;;17.40;99.90;;;;;;4923744;29;20041;-91
2023/07/31 14:38:02;;;;;;;9.18;4.13;;;17.40;99.90;;;;;;4898140;29;21297;-90
2023/07/31 14:40:27;;;;;;;6.57;4.20;;;17.30;99.90;;;;;;4906775;29;20028;-90
2023/07/31 14:42:53;;;;;;;7.65;4.13;;;17.30;99.90;;;;;;4903036;29;20027;-90
2023/07/31 14:45:18;;;;;;;6.20;4.28;;;17.30;99.90;;;;;;4904393;29;20099;-88
2023/07/31 14:47:44;;;;;;;6.05;4.00;;;17.40;99.90;;;;;;4909212;29;20129;-89
2023/07/31 14:50:10;;;;;;;7.78;4.47;;;17.40;99.90;;;;;;4903216;29;20047;-89
2023/07/31 14:52:35;;;;;;;6.30;4.43;;;17.40;99.90;;;;;;4905369;29;20110;-88
2023/07/31 14:55:01;;;;;;;7.30;4.35;;;17.40;99.90;;;;;;4912486;29;20112;-90
2023/07/31 14:57:27;;;;;;;8.65;4.90;;;17.40;99.90;;;;;;4917849;29;20099;-89
2023/07/31 14:59:52;;;;;;;6.28;4.35;;;17.40;99.90;;;;;;4916192;29;20063;-87
2023/07/31 15:02:18;;;;;;;7.85;4.18;;;17.40;99.90;;;;;;4907956;29;20059;-88
2023/07/31 15:04:44;;;;;;;10.55;4.10;;;17.30;99.90;;;;;;4905762;29;20048;-89
2023/07/31 15:07:09;;;;;;;6.57;4.70;;;17.40;99.90;;;;;;4897828;29;20024;-87
2023/07/31 15:09:35;;;;;;;9.90;5.47;;;17.50;99.90;;;;;;4913112;29;20063;-89
2023/07/31 15:12:01;;;;;;;7.35;4.82;;;17.50;99.90;;;;;;4905644;29;20444;-89
2023/07/31 15:14:27;;;;;;;7.03;5.10;;;17.50;99.90;;;;;;4902978;29;20032;-89
2023/07/31 15:16:53;;;;;;;8.30;4.93;;;17.50;99.90;;;;;;4909111;29;20044;-89
2023/07/31 15:19:19;;;;;;;9.18;5.32;;;17.50;99.90;;;;;;4923685;29;20471;-89
2023/07/31 15:21:44;;;;;;;6.68;4.70;;;17.50;99.90;;;;;;4923371;29;20035;-90
2023/07/31 15:24:10;;;;;;;8.30;5.55;;;17.50;99.90;;;;;;4897507;29;20044;-87
2023/07/31 15:26:37;;;;;;;8.35;5.25;;;17.50;99.90;;;;;;4906775;29;20024;-91
2023/07/31 15:29:08;;;;;;;10.13;6.07;;;17.50;99.90;;;;;;4912764;29;20051;-88
2023/07/31 15:31:34;;;;;;;10.43;5.93;;;17.50;99.90;;;;;;4914551;29;20056;-87
2023/07/31 15:34:00;;;;;;;11.48;6.28;;;17.50;99.90;;;;;;4903382;29;20076;-86
2023/07/31 15:36:25;;;;;;;10.05;6.28;;;17.50;99.90;;;;;;4907316;29;20558;-90
2023/07/31 15:38:52;;;;;;;10.75;6.45;;;17.50;99.90;;;;;;4905967;29;20091;-88
2023/07/31 15:41:18;;;;;;;10.07;6.88;;;17.60;99.90;;;;;;4891173;29;20048;-87
2023/07/31 15:43:43;;;;;;;8.98;5.72;;;17.60;99.90;;;;;;4903634;29;20028;-87
2023/07/31 15:46:09;;;;;;;8.80;6.20;;;17.50;99.90;;;;;;4907844;29;20083;-90
2023/07/31 15:48:34;;;;;;;9.25;6.20;;;17.50;99.90;;;;;;4905785;29;20035;-89
2023/07/31 15:51:02;;;;;;;8.32;5.75;;;17.50;99.90;;;;;;4922673;29;20138;-91
2023/07/31 15:53:28;;;;;;;12.48;6.50;;;17.50;99.90;;;;;;4906573;29;20030;-90
2023/07/31 15:55:54;;;;;;;11.18;6.55;;;17.40;99.90;;;;;;4906304;29;20108;-90
2023/07/31 15:58:20;;;;;;;10.48;6.50;;;17.40;99.90;;;;;;4908722;29;20036;-89
2023/07/31 16:00:45;;;;;;;10.20;6.75;;;17.30;99.90;;;;;;4907989;29;20056;-88
2023/07/31 16:03:11;;;;;;;10.10;6.32;;;17.30;99.90;;;;;;4907858;29;20336;-88
2023/07/31 16:05:36;;;;;;;10.25;5.70;;;17.40;99.90;;;;;;4891878;29;20020;-90
2023/07/31 16:08:04;;;;;;;11.02;6.50;;;17.40;99.90;;;;;;4894279;29;20040;-88
2023/07/31 16:10:29;;;;;;;10.52;6.82;;;17.40;99.90;;;;;;4883467;29;20035;-89
2023/07/31 16:12:55;;;;;;;9.30;5.72;;;17.40;99.90;;;;;;4911714;29;20027;-90
2023/07/31 16:15:21;;;;;;;9.50;6.20;;;17.40;99.90;;;;;;4913659;29;20052;-89
2023/07/31 16:17:48;;;;;;;13.60;6.40;;;17.30;99.90;;;;;;4916139;29;20098;-90
2023/07/31 16:20:14;;;;;;;10.65;6.53;;;17.30;99.90;;;;;;4916078;29;20040;-89
2023/07/31 16:22:42;;;;;;;11.23;6.75;;;17.40;99.90;;;;;;4909793;29;20029;-89
2023/07/31 16:25:09;;;;;;;10.75;6.30;;;17.40;99.90;;;;;;4901160;29;20056;-89
2023/07/31 16:27:36;;;;;;;8.77;6.35;;;17.50;99.90;;;;;;4929953;29;20475;-89
2023/07/31 17:24:24;;;;;;;6.95;5.10;;;17.40;99.90;;;;;;4944998;23;20110;-70
2023/07/31 17:26:50;;;;;;;6.65;5.05;;;17.40;99.90;;;;;;4949185;28;20043;-70
2023/07/31 17:29:16;;;;;;;9.43;5.90;;;17.40;99.90;;;;;;4914265;28;20398;-68
2023/07/31 17:31:42;;;;;;;9.30;5.13;;;17.40;99.90;;;;;;4948377;28;20042;-70
2023/07/31 17:34:07;;;;;;;9.60;5.43;;;17.40;99.90;;;;;;4951608;28;20043;-67
2023/07/31 17:36:33;;;;;;;7.60;5.50;;;17.40;99.90;;;;;;4949863;28;20465;-68
2023/07/31 17:38:59;;;;;;;9.95;6.22;;;17.50;99.90;;;;;;4948376;28;20031;-68
2023/07/31 17:41:26;;;;;;;11.75;6.00;;;17.50;99.90;;;;;;4932877;29;20032;-68
2023/07/31 17:43:51;;;;;;;9.40;6.00;;;17.40;99.90;;;;;;4949111;28;20071;-69
2023/07/31 17:46:17;;;;;;;10.45;6.40;;;17.40;99.90;;;;;;4952297;28;20039;-68
2023/07/31 17:48:43;;;;;;;11.10;6.25;;;17.40;99.90;;;;;;4946999;28;20027;-67
2023/07/31 17:51:08;;;;;;;9.00;6.05;;;17.40;99.90;;;;;;4954539;28;20454;-68
2023/07/31 17:53:34;;;;;;;10.85;6.38;;;17.40;99.90;;;;;;4951407;29;20122;-68
2023/07/31 17:55:59;;;;;;;9.93;5.82;;;17.40;99.90;;;;;;4943997;29;20399;-69
2023/07/31 17:58:25;;;;;;;9.73;5.53;;;17.40;99.90;;;;;;4946687;29;20039;-68
2023/07/31 18:00:51;;;;;;;8.85;6.00;;;17.40;99.90;;;;;;4931191;29;20035;-68
2023/07/31 18:03:16;;;;;;;8.50;6.22;;;17.40;99.90;;;;;;4951507;28;20077;-68
2023/07/31 18:05:42;;;;;;;11.45;6.20;;;17.40;99.90;;;;;;4954611;28;20063;-67
2023/07/31 18:08:07;;;;;;;9.80;6.00;;;17.40;99.90;;;;;;4952562;28;20061;-68
2023/07/31 18:10:33;;;;;;;10.02;5.82;;;17.30;99.90;;;;;;4954446;29;20039;-68
2023/07/31 18:12:59;;;;;;;8.45;5.93;;;17.30;99.90;;;;;;4948129;28;20107;-67
2023/07/31 18:15:24;;;;;;;10.27;6.20;;;17.30;99.90;;;;;;4948733;28;20106;-68
2023/07/31 18:17:50;;;;;;;9.00;6.22;;;17.30;99.90;;;;;;4952752;29;20074;-68
2023/07/31 18:20:15;;;;;;;10.80;6.32;;;17.30;99.90;;;;;;4950861;28;20641;-68
2023/07/31 18:22:41;;;;;;;13.05;6.38;;;17.30;99.90;;;;;;4949165;28;20051;-69
2023/07/31 18:25:08;;;;;;;13.65;6.60;;;17.30;99.90;;;;;;4939371;29;20106;-68
2023/07/31 18:27:34;;;;;;;9.75;6.38;;;17.20;99.90;;;;;;4935217;29;20024;-70
2023/07/31 18:30:00;;;;;;;9.45;6.25;;;17.20;99.90;;;;;;4938397;29;20039;-67
2023/07/31 18:32:25;;;;;;;9.18;6.63;;;17.20;99.90;;;;;;4935731;29;20467;-67
2023/07/31 18:34:51;;;;;;;12.43;6.65;;;17.20;99.90;;;;;;4934241;29;20078;-68
2023/07/31 18:37:16;;;;;;;12.32;6.85;;;17.20;99.90;;;;;;4929503;29;20046;-69
2023/07/31 18:39:41;;;;;;;9.32;6.63;;;17.20;99.90;;;;;;4932991;29;20574;-69
2023/07/31 18:42:08;;;;;;;9.85;7.13;;;17.20;99.90;;;;;;4934314;29;20067;-68
2023/07/31 18:44:33;;;;;;;11.55;6.85;;;17.10;99.90;;;;;;4930643;29;20035;-67
2023/07/31 18:46:59;;;;;;;16.00;7.47;;;17.10;99.90;;;;;;4911640;29;20035;-68
2023/07/31 18:49:24;;;;;;;11.52;7.22;;;17.10;99.90;;;;;;4928462;29;20036;-67
2023/07/31 18:51:50;;;;;;;8.73;6.47;;;17.10;99.90;;;;;;4917995;29;20039;-69
2023/07/31 18:54:15;;;;;;;11.15;6.63;;;17.00;99.90;;;;;;4922791;29;20539;-68
2023/07/31 18:56:41;;;;;;;11.77;6.40;;;17.00;99.90;;;;;;4936341;29;20118;-67
2023/07/31 18:59:06;;;;;;;11.43;7.15;;;17.00;99.90;;;;;;4939655;29;20075;-68
2023/07/31 19:01:32;;;;;;;10.50;6.75;;;17.00;99.90;;;;;;4926373;29;20027;-68
2023/07/31 19:04:00;;;;;;;10.98;6.90;;;17.00;99.90;;;;;;4927534;29;20036;-68
2023/07/31 19:06:26;;;;;;;12.95;7.10;;;17.00;99.90;;;;;;4925593;29;20584;-67
2023/07/31 19:08:53;;;;;;;13.88;7.30;;;17.00;99.90;;;;;;4926393;29;20162;-67
2023/07/31 19:11:19;;;;;;;14.25;7.57;;;16.90;99.90;;;;;;4932225;29;20040;-67
2023/07/31 19:13:45;;;;;;;11.95;7.63;;;16.90;99.90;;;;;;4938349;29;20039;-68
2023/07/31 19:16:11;;;;;;;14.93;8.15;;;16.90;99.90;;;;;;4928758;29;20028;-68
2023/07/31 19:18:36;;;;;;;13.23;8.23;;;16.90;99.90;;;;;;4923424;29;20131;-68
2023/07/31 19:21:02;;;;;;;13.43;8.45;;;16.90;99.90;;;;;;4929507;29;20517;-67
2023/07/31 19:23:27;;;;;;;12.38;8.98;;;16.80;99.90;;;;;;4929643;29;20056;-67
2023/07/31 19:25:53;;;;;;;17.77;9.77;;;16.90;99.90;;;;;;4923127;29;20039;-68
2023/07/31 19:28:19;;;;;;;14.98;10.40;;;16.80;99.90;;;;;;4920193;29;20099;-67
2023/07/31 19:30:44;;;;;;;15.32;10.82;;;16.80;99.90;;;;;;4925565;29;20468;-67
2023/07/31 19:33:10;;;;;;;18.20;11.48;;;16.80;99.90;;;;;;4929974;29;20059;-67
2023/07/31 19:35:35;;;;;;;16.25;11.18;;;16.80;99.90;;;;;;4922777;29;20558;-68
2023/07/31 19:38:01;;;;;;;19.35;10.02;;;16.80;99.90;;;;;;4929579;29;20067;-67
2023/07/31 19:40:26;;;;;;;12.95;8.40;;;16.80;99.90;;;;;;4920806;29;20491;-68
2023/07/31 19:42:54;;;;;;;9.77;8.45;;;16.80;99.90;;;;;;4927594;29;20047;-69
2023/07/31 19:45:20;;;;;;;12.18;8.30;;;16.70;99.90;;;;;;4926104;29;20034;-67
2023/07/31 19:47:46;;;;;;;12.20;7.63;;;16.70;99.90;;;;;;4930958;29;20028;-68
2023/07/31 19:50:11;;;;;;;10.55;7.50;;;16.70;99.90;;;;;;4929675;29;20466;-67
2023/07/31 19:52:37;;;;;;;10.10;6.53;;;16.60;99.90;;;;;;4932188;29;20036;-67
2023/07/31 19:55:02;;;;;;;8.95;6.13;;;16.50;99.90;;;;;;4933807;29;20027;-68
2023/07/31 19:57:28;;;;;;;8.65;5.65;;;16.50;99.90;;;;;;4928606;29;20460;-68
2023/07/31 19:59:53;;;;;;;8.27;6.22;;;16.50;99.90;;;;;;4920155;29;20040;-69
2023/07/31 20:02:19;;;;;;;9.70;6.07;;;16.50;99.90;;;;;;4924721;29;20073;-67
2023/07/31 20:04:44;;;;;;;10.57;6.40;;;16.50;99.90;;;;;;4923491;29;20066;-68
2023/07/31 20:07:10;;;;;;;13.80;6.30;;;16.50;99.90;;;;;;4933005;29;20039;-67
2023/07/31 20:09:35;;;;;;;9.50;5.05;;;16.40;99.90;;;;;;4930366;29;20028;-67
2023/07/31 20:12:01;;;;;;;8.23;5.32;;;16.40;99.90;;;;;;4932256;29;20036;-68
2023/07/31 20:14:26;;;;;;;7.63;4.00;;;16.30;99.90;;;;;;4931852;29;20070;-69
2023/07/31 20:16:52;;;;;;;5.72;4.05;;;16.30;99.90;;;;;;4929214;29;20044;-68
2023/07/31 20:19:17;;;;;;;7.35;3.75;;;16.30;99.90;;;;;;4928267;29;20472;-67
2023/07/31 20:21:43;;;;;;;5.63;3.22;;;16.20;99.90;;;;;;4934972;29;20027;-67
2023/07/31 20:24:09;;;;;;;4.78;2.30;;;16.20;99.90;;;;;;4931161;29;20074;-69
2023/07/31 20:26:36;;;;;;;3.40;1.98;;;16.10;99.90;;;;;;4931912;29;20031;-67
2023/07/31 20:29:01;;;;;;;3.00;1.63;;;16.10;99.90;;;;;;4925305;29;20030;-71
2023/07/31 20:31:27;;;;;;;3.80;2.10;;;16.00;99.90;;;;;;4917096;29;20043;-71
2023/07/31 20:33:52;;;;;;;3.13;1.80;;;16.00;99.90;;;;;;4925041;29;20044;-71
2023/07/31 20:36:18;;;;;;;4.30;1.88;;;15.90;99.90;;;;;;4926782;29;20035;-71
2023/07/31 20:38:43;;;;;;;3.30;1.88;;;15.80;99.90;;;;;;4913140;29;20542;-71
2023/07/31 20:41:12;;;;;;;4.57;2.10;;;15.80;99.90;;;;;;4930690;29;20511;-71
2023/07/31 20:43:37;;;;;;;9.20;2.40;;;15.80;99.90;;;;;;4925448;29;20050;-71
2023/07/31 20:46:03;;;;;;;5.50;2.42;;;15.80;99.90;;;;;;4930824;29;20032;-71
2023/07/31 20:48:28;;;;;;;5.65;2.67;;;15.80;99.90;;;;;;4926536;29;20039;-71
2023/07/31 20:50:59;;;;;;;9.07;3.22;;;15.80;99.90;;;;;;4925630;29;20032;-71
2023/07/31 20:53:24;;;;;;;5.03;3.10;;;15.80;99.90;;;;;;4926619;29;20468;-71
2023/07/31 20:55:50;;;;;;;6.82;3.85;;;15.80;99.90;;;;;;4933043;29;20051;-71
2023/07/31 20:58:15;;;;;;;9.95;4.75;;;15.80;99.90;;;;;;4927236;29;20495;-71
2023/07/31 21:00:43;;;;;;;10.52;5.60;;;15.90;99.90;;;;;;4930100;29;20102;-71
2023/07/31 21:03:09;;;;;;;10.70;5.53;;;15.90;99.90;;;;;;4926753;29;20135;-71
2023/07/31 21:05:34;;;;;;;12.32;5.93;;;16.00;99.90;;;;;;4929770;29;20395;-71
2023/07/31 21:08:00;;;;;;;11.80;6.47;;;16.00;99.90;;;;;;4926903;29;20057;-71
2023/07/31 21:10:25;;;;;;;11.32;5.82;;;16.00;99.90;;;;;;4927125;29;20534;-71
2023/07/31 21:12:51;;;;;;;9.48;6.03;;;16.00;99.90;;;;;;4930680;29;20622;-71
2023/07/31 21:15:17;;;;;;;10.07;6.50;;;16.10;99.90;;;;;;4925407;29;20111;-71
2023/07/31 21:17:42;;;;;;;15.75;7.30;;;16.20;99.90;;;;;;4933836;29;20031;-71
2023/07/31 21:20:08;;;;;;;12.10;7.43;;;16.20;99.90;;;;;;4933976;29;20114;-71
2023/07/31 21:22:33;;;;;;;12.13;7.00;;;16.20;99.90;;;;;;4935303;29;20056;-71
2023/07/31 21:24:59;;;;;;;11.98;6.97;;;16.30;99.90;;;;;;4929757;29;20368;-71
2023/07/31 21:27:24;;;;;;;12.85;7.22;;;16.30;99.90;;;;;;4936377;29;20419;-71
2023/07/31 21:29:52;;;;;;;13.38;7.22;;;16.30;99.90;;;;;;4933799;29;20031;-71
2023/07/31 21:32:18;;;;;;;12.65;7.05;;;16.40;99.90;;;;;;4934371;29;20388;-70
2023/07/31 21:34:43;;;;;;;11.88;6.75;;;16.30;99.90;;;;;;4927442;29;20055;-71
2023/07/31 21:37:10;;;;;;;11.27;6.70;;;16.30;99.90;;;;;;4932128;29;20042;-70
2023/07/31 21:39:39;;;;;;;12.10;6.85;;;16.30;99.90;;;;;;4934266;29;20040;-71
2023/07/31 21:42:06;;;;;;;11.85;7.05;;;16.40;99.90;;;;;;4929540;29;20391;-70
2023/07/31 21:44:31;;;;;;;13.65;6.63;;;16.40;99.90;;;;;;4931487;29;20042;-70
2023/07/31 21:46:57;;;;;;;14.05;7.28;;;16.40;99.90;;;;;;4937931;29;20040;-70
2023/07/31 21:49:22;;;;;;;9.10;6.43;;;16.30;99.90;;;;;;4934145;29;20151;-70
2023/07/31 21:51:48;;;;;;;14.52;7.13;;;16.30;99.90;;;;;;4937254;29;20086;-70
2023/07/31 21:54:13;;;;;;;12.13;6.80;;;16.40;99.90;;;;;;4934352;29;20032;-70
2023/07/31 21:56:39;;;;;;;9.60;6.32;;;16.30;99.90;;;;;;4939862;29;20443;-70
2023/07/31 21:59:04;;;;;;;9.38;6.47;;;16.30;99.90;;;;;;4926398;29;20036;-71
2023/07/31 22:01:30;;;;;;;9.45;6.78;;;16.40;99.90;;;;;;4932005;29;20052;-70
2023/07/31 22:03:55;;;;;;;11.32;6.50;;;16.30;99.90;;;;;;4929708;29;20039;-70
2023/07/31 22:06:20;;;;;;;9.93;6.45;;;16.30;99.90;;;;;;4925804;29;20031;-71
2023/07/31 22:08:46;;;;;;;10.30;6.45;;;16.30;99.90;;;;;;4936921;29;20110;-70
2023/07/31 22:11:11;;;;;;;11.32;6.85;;;16.30;99.90;;;;;;4932370;29;20046;-70
2023/07/31 22:13:37;;;;;;;11.65;6.32;;;16.30;99.90;;;;;;4934683;29;20387;-71
2023/07/31 22:16:03;;;;;;;12.45;6.68;;;16.30;99.90;;;;;;4932402;29;20028;-71
2023/07/31 22:18:29;;;;;;;12.15;6.65;;;16.30;99.90;;;;;;4932459;29;20504;-70
2023/07/31 22:20:54;;;;;;;10.82;6.15;;;16.30;99.90;;;;;;4928680;29;20036;-71
2023/07/31 22:23:20;;;;;;;8.95;6.20;;;16.20;99.90;;;;;;4931801;29;20110;-71
2023/07/31 22:25:45;;;;;;;9.75;6.38;;;16.20;99.90;;;;;;4930527;29;20131;-71
2023/07/31 22:28:11;;;;;;;10.52;5.15;;;16.20;99.90;;;;;;4926761;29;20408;-71
2023/07/31 22:30:36;;;;;;;8.13;4.95;;;16.20;99.90;;;;;;4933901;29;20052;-70
2023/07/31 22:33:02;;;;;;;8.60;4.82;;;16.00;99.90;;;;;;4931469;29;20039;-71
2023/07/31 22:35:27;;;;;;;5.75;3.55;;;15.90;99.90;;;;;;4929120;29;20044;-71
2023/07/31 22:37:52;;;;;;;6.88;3.72;;;15.90;99.90;;;;;;4930570;29;20027;-71
2023/07/31 22:40:18;;;;;;;5.88;3.30;;;15.80;99.90;;;;;;4928461;29;20040;-71
2023/07/31 22:42:43;;;;;;;6.63;3.45;;;15.70;99.90;;;;;;4936892;29;20482;-71
2023/07/31 22:45:10;;;;;;;5.25;3.17;;;15.70;99.90;;;;;;4936915;29;20052;-70
2023/07/31 22:47:36;;;;;;;5.20;2.90;;;15.60;99.90;;;;;;4933411;29;20063;-70